Time;durP1;ratioP1;P1;durP2;ratioP2;P2;SDS_P1;SDS_P2;PMS_P1;PMS_P2;Temp;Humidity;BMP_temperature;BMP_pressure;BME280_temperature;BME280_humidity;BME280_pressure;Samples;Min_cycle;Max_cycle;Signal;HPM_P1;HPM_P2
2022/03/06 00:01:04;;;;;;;9.93;7.70;;;;;;;19.44;38.84;102219.91;5013766;28;20489;-64
2022/03/06 00:03:29;;;;;;;10.40;7.38;;;;;;;19.42;38.71;102218.28;5012523;28;20272;-64
2022/03/06 00:05:54;;;;;;;10.63;7.47;;;;;;;19.38;38.57;102215.84;5013665;28;20032;-64
2022/03/06 00:08:20;;;;;;;10.27;7.70;;;;;;;19.34;38.70;102222.28;5013031;28;20120;-64
2022/03/06 00:10:46;;;;;;;9.45;7.40;;;;;;;19.31;38.69;102224.28;5012463;28;20314;-63
2022/03/06 00:13:13;;;;;;;10.15;7.18;;;;;;;19.27;38.87;102228.91;5013415;28;20363;-63
2022/03/06 00:15:38;;;;;;;10.02;7.07;;;;;;;19.24;38.61;102221.19;5013191;28;20052;-63
2022/03/06 00:18:04;;;;;;;10.50;7.70;;;;;;;19.22;38.67;102225.72;5012634;28;20125;-63
2022/03/06 00:20:29;;;;;;;10.10;7.18;;;;;;;19.18;38.67;102226.84;5013269;28;20263;-63
2022/03/06 00:22:55;;;;;;;10.00;7.50;;;;;;;19.14;38.70;102231.50;5013411;28;20165;-64
2022/03/06 00:25:20;;;;;;;11.05;7.90;;;;;;;19.14;38.60;102230.66;5012504;28;20271;-64
2022/03/06 00:27:46;;;;;;;10.20;7.13;;;;;;;19.09;38.67;102227.44;5013385;28;20030;-64
2022/03/06 00:30:11;;;;;;;9.75;7.28;;;;;;;19.06;38.44;102227.63;5012563;28;20389;-64
2022/03/06 00:32:37;;;;;;;11.38;7.50;;;;;;;19.05;38.55;102229.44;5012775;28;20034;-64
2022/03/06 00:35:03;;;;;;;10.25;7.57;;;;;;;19.01;38.66;102218.22;5013207;28;20458;-63
2022/03/06 00:37:28;;;;;;;11.18;7.68;;;;;;;18.98;38.48;102231.63;5012225;28;20494;-64
2022/03/06 00:39:56;;;;;;;10.97;7.73;;;;;;;18.96;38.80;102249.38;5013187;28;20096;-63
2022/03/06 00:42:21;;;;;;;11.13;7.45;;;;;;;18.94;38.59;102242.47;5012708;28;20751;-64
2022/03/06 00:44:46;;;;;;;9.00;6.77;;;;;;;18.90;38.84;102247.09;5012360;28;20037;-63
2022/03/06 00:47:12;;;;;;;9.70;7.30;;;;;;;18.86;38.59;102242.94;5013053;28;20796;-64
2022/03/06 00:49:38;;;;;;;10.27;7.60;;;;;;;18.83;38.81;102251.91;5012400;28;20846;-64
2022/03/06 00:52:03;;;;;;;9.48;7.57;;;;;;;18.83;38.52;102258.94;5013861;28;20302;-64
2022/03/06 00:54:31;;;;;;;10.00;7.38;;;;;;;18.79;38.74;102255.66;5016889;28;20492;-64
2022/03/06 00:56:57;;;;;;;9.57;7.25;;;;;;;18.79;38.64;102258.31;5017147;28;20029;-64
2022/03/06 00:59:22;;;;;;;10.67;7.60;;;;;;;18.77;38.64;102256.69;5015965;28;20022;-64
2022/03/06 01:01:47;;;;;;;9.57;7.40;;;;;;;18.74;38.54;102262.16;5017219;28;20268;-64
2022/03/06 01:04:13;;;;;;;10.43;7.25;;;;;;;18.70;38.71;102258.88;5016912;28;20480;-63
2022/03/06 01:06:38;;;;;;;9.98;7.30;;;;;;;18.68;38.79;102258.97;5015720;28;20137;-64
2022/03/06 01:09:04;;;;;;;10.80;7.60;;;;;;;18.65;38.92;102259.13;5016484;28;20465;-63
2022/03/06 01:11:29;;;;;;;10.60;7.60;;;;;;;18.63;38.77;102266.31;5016564;28;20018;-64
2022/03/06 01:13:54;;;;;;;9.82;6.60;;;;;;;18.59;38.85;102267.44;5015927;28;20022;-64
2022/03/06 01:16:20;;;;;;;10.32;7.25;;;;;;;18.58;38.66;102259.59;5016373;28;20036;-64
2022/03/06 01:18:45;;;;;;;10.60;7.70;;;;;;;18.56;38.69;102266.78;5016620;28;20076;-64
2022/03/06 01:21:10;;;;;;;10.35;7.47;;;;;;;18.54;38.59;102264.22;5015788;28;20022;-64
2022/03/06 01:23:36;;;;;;;9.85;7.07;;;;;;;18.53;38.64;102266.97;5016273;28;20116;-64
2022/03/06 01:26:03;;;;;;;9.45;6.85;;;;;;;18.51;38.99;102272.34;5016785;28;20099;-64
2022/03/06 01:28:28;;;;;;;9.07;7.00;;;;;;;18.49;39.04;102275.06;5015640;28;20045;-63
2022/03/06 01:30:53;;;;;;;9.20;7.07;;;;;;;18.47;38.77;102268.19;5016612;28;20046;-62
2022/03/06 01:33:19;;;;;;;10.38;7.50;;;;;;;18.44;38.72;102271.03;5016310;28;20329;-63
2022/03/06 01:35:44;;;;;;;9.45;6.85;;;;;;;18.43;38.96;102274.59;5015485;28;20212;-63
2022/03/06 01:38:09;;;;;;;10.30;7.27;;;;;;;18.45;38.77;102283.25;5016234;28;20038;-63
2022/03/06 01:40:35;;;;;;;9.68;7.10;;;;;;;18.43;38.55;102274.59;5015366;28;20758;-63
2022/03/06 01:43:00;;;;;;;10.35;7.22;;;;;;;18.41;38.81;102281.75;5016243;28;20462;-63
2022/03/06 01:45:25;;;;;;;9.93;6.90;;;;;;;18.40;38.67;102280.91;5015846;28;20057;-63
2022/03/06 01:47:55;;;;;;;9.82;6.93;;;;;;;18.40;38.61;102288.81;5015326;28;20512;-63
2022/03/06 01:50:27;;;;;;;9.73;7.25;;;;;;;18.38;38.43;102282.78;5015566;28;20432;-64
2022/03/06 01:52:58;;;;;;;9.15;6.72;;;;;;;18.35;38.58;102285.59;5016153;28;20041;-64
2022/03/06 01:55:24;;;;;;;9.93;6.88;;;;;;;18.33;38.54;102289.28;5015066;28;20022;-64
2022/03/06 01:57:52;;;;;;;9.52;7.40;;;;;;;18.32;38.53;102291.06;5015750;28;20087;-64
2022/03/06 02:00:24;;;;;;;10.13;7.60;;;;;;;18.37;39.22;102286.34;5015568;28;20040;-65
2022/03/06 02:02:50;;;;;;;10.35;7.78;;;;;;;18.39;39.23;102287.13;5014949;28;20026;-64
2022/03/06 02:05:16;;;;;;;10.27;7.40;;;;;;;18.42;39.13;102284.31;5015771;28;20045;-64
2022/03/06 02:07:44;;;;;;;10.52;7.65;;;;;;;18.45;39.02;102286.78;5015530;28;20026;-64
2022/03/06 02:10:14;;;;;;;10.15;7.20;;;;;;;18.46;39.17;102285.81;5014825;28;20065;-64
2022/03/06 02:12:40;;;;;;;10.73;7.53;;;;;;;18.47;38.99;102292.81;5015318;28;20190;-64
2022/03/06 02:15:08;;;;;;;10.93;7.13;;;;;;;18.49;39.19;102290.91;5015598;28;20032;-63
2022/03/06 02:17:37;;;;;;;10.50;7.47;;;;;;;18.50;38.71;102294.41;5014414;28;20040;-64
2022/03/06 02:20:12;;;;;;;9.80;7.70;;;;;;;18.49;38.70;102287.44;5015573;28;20034;-63
2022/03/06 02:22:39;;;;;;;9.25;7.13;;;;;;;18.52;39.01;102289.00;5015466;28;20038;-63
2022/03/06 02:25:29;;;;;;;9.10;6.97;;;;;;;18.48;38.75;102280.44;5014897;28;20079;-63
2022/03/06 02:27:58;;;;;;;9.30;7.30;;;;;;;18.48;38.60;102285.72;5010115;28;20116;-64
2022/03/06 02:30:26;;;;;;;9.88;7.18;;;;;;;18.47;38.64;102284.88;5014057;28;20080;-64
2022/03/06 02:32:52;;;;;;;10.18;7.25;;;;;;;18.45;38.50;102291.19;5015212;28;20029;-64
2022/03/06 02:35:21;;;;;;;10.75;7.50;;;;;;;18.43;38.60;102288.63;5015215;28;20037;-63
2022/03/06 02:37:47;;;;;;;10.18;7.30;;;;;;;18.43;38.41;102301.00;5014658;28;20072;-63
2022/03/06 02:40:14;;;;;;;9.55;7.15;;;;;;;18.43;38.38;102296.53;5015004;28;20026;-63
2022/03/06 02:42:42;;;;;;;9.73;6.38;;;;;;;18.44;37.99;102306.19;5014801;28;20105;-64
2022/03/06 02:45:16;;;;;;;10.07;7.35;;;;;;;18.46;37.67;102299.00;5014407;28;20052;-63
2022/03/06 02:47:42;;;;;;;8.57;6.72;;;;;;;18.43;38.10;102304.47;5014774;28;20021;-64
2022/03/06 02:50:10;;;;;;;11.00;7.07;;;;;;;18.43;37.91;102307.09;5014910;28;20108;-64
2022/03/06 02:52:36;;;;;;;9.52;6.95;;;;;;;18.43;37.91;102301.81;5013687;28;20026;-64
2022/03/06 02:55:02;;;;;;;9.40;7.03;;;;;;;18.44;38.42;102305.34;5014695;28;20026;-64
2022/03/06 02:57:27;;;;;;;11.77;7.10;;;;;;;18.45;38.87;102307.88;5014335;28;20033;-63
2022/03/06 02:59:55;;;;;;;9.80;6.93;;;;;;;18.45;38.53;102307.88;5014129;28;20032;-63
2022/03/06 03:02:20;;;;;;;11.43;7.93;;;;;;;18.50;38.22;102304.97;5014403;28;20042;-64
2022/03/06 03:04:52;;;;;;;10.25;7.13;;;;;;;18.51;38.60;102304.00;5014588;28;20526;-64
2022/03/06 03:07:17;;;;;;;10.32;7.32;;;;;;;18.52;38.66;102305.72;5014096;28;20025;-64
2022/03/06 03:09:43;;;;;;;9.25;7.00;;;;;;;18.51;38.44;102303.19;5014072;28;20042;-63
2022/03/06 03:12:09;;;;;;;9.88;6.90;;;;;;;18.53;38.02;102307.41;5013629;28;20061;-63
2022/03/06 03:14:35;;;;;;;10.80;7.32;;;;;;;18.51;38.17;102313.72;5013779;28;20108;-63
2022/03/06 03:17:03;;;;;;;9.55;6.80;;;;;;;18.48;38.56;102312.13;5014387;28;20037;-63
2022/03/06 03:19:28;;;;;;;9.95;6.95;;;;;;;18.45;38.25;102312.28;5013346;28;20091;-63
2022/03/06 03:21:54;;;;;;;8.57;6.65;;;;;;;18.46;38.86;102320.13;5014250;28;20461;-63
2022/03/06 03:24:22;;;;;;;9.88;7.43;;;;;;;18.44;38.19;102308.81;5013767;28;20037;-63
2022/03/06 03:26:48;;;;;;;8.52;6.43;;;;;;;18.44;38.11;102305.34;5013628;28;20061;-64
2022/03/06 03:29:13;;;;;;;9.57;7.05;;;;;;;18.44;38.48;102308.81;5014298;28;20476;-63
2022/03/06 03:31:38;;;;;;;9.33;6.87;;;;;;;18.49;38.37;102311.19;5013852;28;20034;-63
2022/03/06 03:34:04;;;;;;;9.60;6.65;;;;;;;18.56;38.46;102315.13;5013382;28;20275;-63
2022/03/06 03:36:29;;;;;;;8.63;6.18;;;;;;;18.59;38.73;102304.41;5013731;28;20473;-63
2022/03/06 03:38:55;;;;;;;9.38;6.78;;;;;;;18.65;38.37;102308.47;5013836;28;20032;-62
2022/03/06 03:41:22;;;;;;;8.73;6.60;;;;;;;18.66;38.25;102311.03;5013043;28;20026;-63
2022/03/06 03:43:50;;;;;;;7.85;6.22;;;;;;;18.66;38.33;102312.81;5014029;28;20267;-63
2022/03/06 03:46:15;;;;;;;9.38;6.60;;;;;;;18.68;38.04;102303.00;5014027;28;20033;-63
2022/03/06 03:48:40;;;;;;;8.60;6.30;;;;;;;18.65;37.61;102309.31;5012782;28;20152;-64
2022/03/06 03:51:06;;;;;;;8.70;6.67;;;;;;;18.60;37.57;102303.47;5013646;28;20279;-62
2022/03/06 03:53:31;;;;;;;9.25;6.38;;;;;;;18.63;38.08;102310.38;5013174;28;20302;-63
2022/03/06 03:55:56;;;;;;;9.57;6.30;;;;;;;18.63;38.20;102305.09;5012920;28;20032;-63
2022/03/06 03:58:24;;;;;;;8.25;6.00;;;;;;;18.70;37.91;102311.69;5013500;28;20267;-63
2022/03/06 04:00:58;;;;;;;8.30;5.82;;;;;;;18.72;38.05;102309.78;5013709;28;20033;-63
2022/03/06 04:03:24;;;;;;;9.15;6.68;;;;;;;18.78;37.95;102319.13;5012609;28;20034;-63
2022/03/06 04:05:49;;;;;;;8.13;5.47;;;;;;;18.81;38.22;102324.25;5013366;28;20048;-63
2022/03/06 04:08:14;;;;;;;8.07;5.70;;;;;;;18.82;38.05;102323.31;5012775;28;20061;-64
2022/03/06 04:10:40;;;;;;;8.50;6.22;;;;;;;18.81;37.70;102321.59;5012993;28;20486;-64
2022/03/06 04:13:05;;;;;;;9.18;6.30;;;;;;;18.79;37.79;102320.84;5013191;28;20026;-64
2022/03/06 04:15:31;;;;;;;8.18;5.60;;;;;;;18.79;37.80;102331.41;5012411;28;20021;-64
2022/03/06 04:17:56;;;;;;;8.13;5.68;;;;;;;18.76;37.77;102336.88;5013265;28;20057;-64
2022/03/06 04:20:22;;;;;;;9.32;6.25;;;;;;;18.72;37.54;102335.34;5012901;28;20026;-64
2022/03/06 04:22:47;;;;;;;9.45;6.18;;;;;;;18.65;37.41;102333.06;5012574;28;20450;-64
2022/03/06 04:25:12;;;;;;;8.03;5.83;;;;;;;18.65;37.76;102345.44;5013337;28;20025;-64
2022/03/06 04:27:37;;;;;;;7.80;6.03;;;;;;;18.66;37.86;102348.00;5012211;28;20275;-64
2022/03/06 04:30:04;;;;;;;8.40;6.17;;;;;;;18.74;37.89;102351.94;5012459;28;20026;-64
2022/03/06 04:32:29;;;;;;;8.80;5.97;;;;;;;18.78;37.96;102351.69;5012801;28;20275;-64
2022/03/06 04:34:55;;;;;;;8.23;6.03;;;;;;;18.83;38.14;102359.31;5013283;28;20076;-64
2022/03/06 04:37:20;;;;;;;7.27;5.47;;;;;;;18.83;37.56;102354.91;5012032;28;20286;-64
2022/03/06 04:39:45;;;;;;;7.75;5.45;;;;;;;18.84;37.78;102350.50;5013219;28;20279;-64
2022/03/06 04:42:11;;;;;;;8.07;6.10;;;;;;;18.83;37.88;102360.19;5013119;28;20057;-64
2022/03/06 04:44:36;;;;;;;8.77;6.13;;;;;;;18.82;37.94;102358.47;5012189;28;20018;-64
2022/03/06 04:47:04;;;;;;;7.78;5.35;;;;;;;18.82;37.87;102357.66;5013320;28;20022;-63
2022/03/06 04:49:30;;;;;;;7.60;5.45;;;;;;;18.78;37.68;102356.13;5012861;28;20032;-64
2022/03/06 04:51:55;;;;;;;7.83;5.93;;;;;;;18.72;37.70;102365.25;5012084;28;20038;-64
2022/03/06 04:54:20;;;;;;;7.90;5.70;;;;;;;18.65;37.46;102356.84;5012807;28;20307;-64
2022/03/06 04:56:46;;;;;;;8.05;5.82;;;;;;;18.73;37.61;102371.41;5012894;28;20279;-64
2022/03/06 04:59:11;;;;;;;7.82;5.43;;;;;;;18.77;37.70;102365.84;5012245;28;20020;-64
2022/03/06 05:01:37;;;;;;;7.77;5.90;;;;;;;18.85;37.95;102381.25;5012630;28;20033;-64
2022/03/06 05:04:02;;;;;;;7.40;5.45;;;;;;;18.86;37.78;102382.94;5013063;28;20823;-64
2022/03/06 05:06:27;;;;;;;7.15;5.43;;;;;;;18.90;37.72;102381.84;5011786;28;20021;-64
2022/03/06 05:08:53;;;;;;;7.22;4.97;;;;;;;18.92;37.50;102384.38;5012626;28;20453;-63
2022/03/06 05:11:18;;;;;;;7.60;5.22;;;;;;;18.93;37.81;102391.34;5013020;28;20060;-63
2022/03/06 05:13:43;;;;;;;7.40;5.67;;;;;;;18.91;37.69;102393.25;5011678;28;20416;-64
2022/03/06 05:16:09;;;;;;;7.43;5.60;;;;;;;18.83;37.70;102380.47;5012596;28;20267;-63
2022/03/06 05:18:36;;;;;;;7.78;5.30;;;;;;;18.82;37.23;102386.69;5011750;28;20097;-64
2022/03/06 05:21:03;;;;;;;7.10;5.25;;;;;;;18.79;37.32;102389.53;5012838;28;20101;-64
2022/03/06 05:23:28;;;;;;;8.75;5.65;;;;;;;18.78;37.34;102391.28;5012441;28;20438;-63
2022/03/06 05:25:57;;;;;;;7.77;5.30;;;;;;;18.80;37.39;102394.72;5011997;28;20038;-63
2022/03/06 05:28:23;;;;;;;7.45;5.22;;;;;;;18.88;37.48;102398.69;5012369;28;20272;-63
2022/03/06 05:30:49;;;;;;;7.55;4.93;;;;;;;18.94;37.72;102403.63;5012395;28;20405;-63
2022/03/06 05:33:14;;;;;;;7.32;5.22;;;;;;;18.96;37.56;102402.59;5011648;28;20041;-63
2022/03/06 05:35:39;;;;;;;7.50;5.10;;;;;;;18.96;37.06;102407.00;5012045;28;20026;-63
2022/03/06 05:38:04;;;;;;;7.40;5.35;;;;;;;18.95;37.13;102408.81;5014173;28;20282;-63
2022/03/06 05:40:30;;;;;;;6.85;4.60;;;;;;;18.95;37.37;102413.25;5016059;28;20038;-63
2022/03/06 05:42:55;;;;;;;6.85;4.75;;;;;;;18.92;37.32;102406.34;5016193;28;20363;-64
2022/03/06 05:45:20;;;;;;;7.47;5.00;;;;;;;18.90;37.13;102408.25;5015715;28;20037;-63
2022/03/06 05:47:46;;;;;;;7.73;5.60;;;;;;;18.87;37.20;102415.47;5015387;28;20474;-63
2022/03/06 05:50:11;;;;;;;6.88;4.78;;;;;;;18.85;37.11;102415.59;5015907;28;20264;-64
2022/03/06 05:52:36;;;;;;;7.05;5.00;;;;;;;18.88;37.06;102419.84;5015740;28;20053;-63
2022/03/06 05:55:03;;;;;;;6.80;4.88;;;;;;;18.94;37.06;102416.84;5015064;28;20112;-63
2022/03/06 05:57:35;;;;;;;6.93;4.60;;;;;;;18.99;36.98;102428.84;5015405;28;20493;-63
2022/03/06 06:00:00;;;;;;;7.20;4.90;;;;;;;19.06;37.15;102424.03;5015760;28;20037;-64
2022/03/06 06:02:26;;;;;;;6.70;4.85;;;;;;;19.12;37.53;102425.44;5014709;28;20022;-64
2022/03/06 06:04:51;;;;;;;6.57;4.70;;;;;;;19.20;37.45;102428.44;5015680;28;20032;-63
2022/03/06 06:07:16;;;;;;;6.45;4.68;;;;;;;19.27;37.79;102428.94;5015924;28;20026;-63
2022/03/06 06:09:42;;;;;;;6.63;4.68;;;;;;;19.31;37.40;102433.97;5014474;28;20049;-63
2022/03/06 06:12:08;;;;;;;5.82;4.15;;;;;;;19.37;37.65;102435.34;5015566;28;20037;-63
2022/03/06 06:14:33;;;;;;;6.40;4.25;;;;;;;19.45;38.33;102443.66;5015064;28;20044;-65
2022/03/06 06:16:59;;;;;;;6.20;3.90;;;;;;;19.50;38.37;102444.25;5014716;28;20032;-64
2022/03/06 06:19:24;;;;;;;6.47;4.20;;;;;;;19.54;38.38;102448.38;5015007;28;20034;-64
2022/03/06 06:21:50;;;;;;;6.28;4.20;;;;;;;19.58;38.27;102455.19;5015093;28;20029;-64
2022/03/06 06:24:15;;;;;;;5.93;3.83;;;;;;;19.61;38.15;102456.78;5015186;28;20018;-64
2022/03/06 06:26:42;;;;;;;6.40;4.15;;;;;;;19.64;38.59;102450.47;5015019;28;20079;-64
2022/03/06 06:29:07;;;;;;;5.78;4.18;;;;;;;19.66;38.18;102453.84;5014445;28;20109;-64
2022/03/06 06:31:32;;;;;;;6.38;4.03;;;;;;;19.67;38.27;102456.41;5014788;28;20114;-64
2022/03/06 06:33:58;;;;;;;5.70;3.88;;;;;;;19.69;37.99;102456.31;5015487;28;20034;-64
2022/03/06 06:36:35;;;;;;;6.18;3.97;;;;;;;19.69;37.89;102462.47;5014161;28;20057;-64
2022/03/06 06:39:01;;;;;;;6.70;4.47;;;;;;;19.70;37.91;102466.78;5014852;28;20032;-64
2022/03/06 06:41:29;;;;;;;6.20;4.13;;;;;;;19.71;37.85;102462.34;5014521;28;20022;-64
2022/03/06 06:43:54;;;;;;;7.00;4.25;;;;;;;19.72;37.79;102469.34;5014051;28;20616;-64
2022/03/06 06:46:19;;;;;;;5.97;4.10;;;;;;;19.72;37.69;102464.91;5014408;28;20501;-64
2022/03/06 06:48:45;;;;;;;6.90;4.40;;;;;;;19.71;37.23;102465.88;5014479;28;20461;-64
2022/03/06 06:51:10;;;;;;;6.97;4.43;;;;;;;19.73;37.70;102468.41;5013761;28;20754;-64
2022/03/06 06:53:36;;;;;;;7.10;4.35;;;;;;;19.73;37.20;102473.69;5014510;28;20080;-64
2022/03/06 06:56:01;;;;;;;6.47;4.50;;;;;;;19.74;37.54;102480.66;5014813;28;20021;-64
2022/03/06 06:58:26;;;;;;;6.20;3.95;;;;;;;19.73;37.60;102479.00;5013605;28;20513;-64
2022/03/06 07:00:52;;;;;;;5.73;4.00;;;;;;;19.77;38.15;102482.31;5014536;28;20021;-64
2022/03/06 07:03:17;;;;;;;5.70;3.75;;;;;;;19.79;38.10;102483.06;5014739;28;20329;-64
2022/03/06 07:05:44;;;;;;;5.07;3.45;;;;;;;19.80;38.03;102484.78;5013578;28;20465;-64
2022/03/06 07:08:10;;;;;;;6.55;4.18;;;;;;;19.84;37.75;102496.88;5014421;28;20381;-64
2022/03/06 07:10:35;;;;;;;4.95;3.55;;;;;;;19.85;37.92;102494.13;5013922;28;20149;-64
2022/03/06 07:13:00;;;;;;;5.27;3.60;;;;;;;19.85;37.92;102494.13;5013426;28;20053;-63
2022/03/06 07:15:28;;;;;;;5.67;3.80;;;;;;;19.86;37.68;102500.25;5013897;28;20267;-64
2022/03/06 07:17:57;;;;;;;5.68;3.92;;;;;;;19.85;37.56;102494.13;5014472;28;20279;-64
2022/03/06 07:20:23;;;;;;;5.45;4.03;;;;;;;19.86;37.53;102498.47;5013069;28;20523;-63
2022/03/06 07:22:48;;;;;;;5.82;3.70;;;;;;;19.85;37.60;102502.06;5014161;28;20033;-63
2022/03/06 07:25:16;;;;;;;5.70;3.97;;;;;;;19.87;38.02;102497.53;5013505;28;20493;-62
2022/03/06 07:27:41;;;;;;;7.80;5.80;;;;;;;19.72;34.71;102499.28;5013721;28;20611;-63
2022/03/06 07:30:10;;;;;;;7.05;4.45;;;;;;;19.75;37.36;102508.84;5013960;28;20037;-64
2022/03/06 07:32:47;;;;;;;6.20;3.63;;;;;;;19.80;37.49;102503.28;5012852;28;20358;-64
2022/03/06 07:35:14;;;;;;;5.63;3.50;;;;;;;19.86;37.62;102514.34;5013860;28;20022;-63
2022/03/06 07:37:39;;;;;;;4.95;3.40;;;;;;;19.92;37.77;102518.41;5013662;28;20088;-63
2022/03/06 07:40:09;;;;;;;5.82;3.55;;;;;;;19.97;37.78;102518.97;5013083;28;20435;-63
2022/03/06 07:42:35;;;;;;;5.53;3.45;;;;;;;20.01;37.67;102519.59;5013454;28;20026;-63
2022/03/06 07:45:01;;;;;;;5.97;3.85;;;;;;;20.05;37.45;102532.56;5013997;28;20096;-63
2022/03/06 07:47:29;;;;;;;5.88;4.30;;;;;;;20.00;36.97;102526.72;5012824;28;20021;-64
2022/03/06 07:49:54;;;;;;;5.90;3.90;;;;;;;20.01;37.79;102539.00;5013831;28;20025;-63
2022/03/06 07:52:23;;;;;;;6.40;3.70;;;;;;;20.03;38.25;102536.25;4976700;28;20472;-65
2022/03/06 07:54:48;;;;;;;5.18;3.30;;;;;;;20.04;38.02;102544.06;5032538;28;20757;-65
2022/03/06 07:57:13;;;;;;;5.30;3.50;;;;;;;20.06;38.05;102552.78;5033306;28;20029;-64
2022/03/06 07:59:39;;;;;;;6.00;3.63;;;;;;;20.09;38.05;102554.38;5033225;28;20627;-64
2022/03/06 08:02:04;;;;;;;5.90;3.60;;;;;;;20.11;37.89;102553.34;5032574;28;20026;-66
2022/03/06 08:04:32;;;;;;;5.70;3.53;;;;;;;20.13;37.58;102563.00;5032925;28;20053;-63
2022/03/06 08:06:58;;;;;;;6.95;3.45;;;;;;;20.14;37.86;102568.19;5033081;28;20156;-67
2022/03/06 08:09:26;;;;;;;5.68;3.75;;;;;;;20.13;38.03;102571.78;5031918;28;20129;-65
2022/03/06 08:11:52;;;;;;;6.20;3.63;;;;;;;20.06;38.34;102565.16;5032943;28;20460;-63
2022/03/06 08:14:20;;;;;;;5.15;3.70;;;;;;;20.03;38.53;102568.88;5032052;28;20030;-63
2022/03/06 08:16:46;;;;;;;12.45;3.42;;;;;;;20.06;38.45;102573.09;5032696;28;20026;-63
2022/03/06 08:19:11;;;;;;;5.20;3.38;;;;;;;20.06;36.87;102566.03;5032950;28;20021;-64
2022/03/06 08:21:39;;;;;;;6.22;4.03;;;;;;;20.05;36.50;102566.13;5031735;28;20021;-65
2022/03/06 08:24:04;;;;;;;5.88;4.28;;;;;;;20.06;38.00;102566.03;5032914;28;20044;-64
2022/03/06 08:26:30;;;;;;;4.78;3.17;;;;;;;20.14;38.29;102570.84;5032471;28;20034;-64
2022/03/06 08:28:55;;;;;;;5.30;3.20;;;;;;;20.21;38.23;102572.16;5032263;28;20052;-64
2022/03/06 08:31:20;;;;;;;5.60;3.20;;;;;;;20.26;38.25;102575.34;5032653;28;20281;-64
2022/03/06 08:33:46;;;;;;;4.88;3.28;;;;;;;20.28;37.96;102573.47;5032844;28;20370;-64
2022/03/06 08:36:12;;;;;;;4.93;3.33;;;;;;;20.25;38.25;102581.59;5032110;28;20017;-64
2022/03/06 08:38:37;;;;;;;4.85;3.40;;;;;;;20.20;38.61;102578.41;5032335;28;20445;-64
2022/03/06 08:41:03;;;;;;;5.40;3.10;;;;;;;20.25;38.71;102584.25;5032458;28;20030;-62
2022/03/06 08:43:28;;;;;;;5.00;2.90;;;;;;;20.28;38.79;102584.06;5031808;28;20100;-63
2022/03/06 08:45:53;;;;;;;4.97;3.08;;;;;;;20.35;38.84;102592.47;5032823;28;20391;-62
2022/03/06 08:48:21;;;;;;;4.90;3.17;;;;;;;20.38;38.41;102586.13;5032731;28;20473;-63
2022/03/06 08:50:47;;;;;;;4.45;2.67;;;;;;;20.41;38.87;102594.72;5031883;28;20025;-63
2022/03/06 08:53:12;;;;;;;4.80;3.10;;;;;;;20.43;38.68;102599.91;5032429;28;20036;-65
2022/03/06 08:55:40;;;;;;;4.68;3.10;;;;;;;20.43;38.47;102591.97;5032150;28;20112;-64
2022/03/06 08:58:05;;;;;;;5.63;3.25;;;;;;;20.43;38.41;102581.38;5031771;28;20493;-64
2022/03/06 09:00:30;;;;;;;4.63;3.00;;;;;;;20.46;38.39;102597.06;5032482;28;20029;-64
2022/03/06 09:02:56;;;;;;;5.20;3.13;;;;;;;20.45;38.51;102592.72;5032564;28;20642;-64
2022/03/06 09:05:21;;;;;;;4.90;2.90;;;;;;;20.48;38.31;102587.22;5031544;28;20032;-65
2022/03/06 09:07:47;;;;;;;4.70;2.80;;;;;;;20.46;38.59;102586.50;5032551;28;20262;-65
2022/03/06 09:10:12;;;;;;;4.90;2.92;;;;;;;20.46;38.54;102591.78;5032013;28;20285;-64
2022/03/06 09:12:38;;;;;;;4.55;2.83;;;;;;;20.47;38.67;102596.13;5032439;28;20112;-64
2022/03/06 09:15:05;;;;;;;4.05;2.83;;;;;;;20.47;39.07;102604.06;5036599;28;20124;-65
2022/03/06 09:17:30;;;;;;;5.32;3.25;;;;;;;20.45;38.89;102596.22;5035941;28;20037;-64
2022/03/06 09:19:56;;;;;;;5.03;2.88;;;;;;;20.46;39.21;102597.91;5035936;28;20029;-65
2022/03/06 09:22:21;;;;;;;6.13;3.00;;;;;;;20.47;39.21;102601.41;5035847;28;20515;-64
2022/03/06 09:24:46;;;;;;;4.82;2.90;;;;;;;20.48;38.99;102595.19;5035312;28;20473;-63
2022/03/06 09:27:12;;;;;;;4.67;2.67;;;;;;;20.47;38.85;102596.13;5036381;28;20022;-66
2022/03/06 09:29:37;;;;;;;4.22;2.75;;;;;;;20.41;38.71;102600.03;5036865;28;20332;-67
2022/03/06 09:32:02;;;;;;;5.47;3.00;;;;;;;20.34;38.73;102597.84;5035434;28;20378;-69
2022/03/06 09:34:27;;;;;;;5.20;3.25;;;;;;;20.38;39.03;102602.03;5035871;28;20316;-68
2022/03/06 09:36:53;;;;;;;5.05;3.00;;;;;;;20.39;38.87;102603.69;5036034;28;20040;-68
2022/03/06 09:39:18;;;;;;;5.10;3.28;;;;;;;20.41;38.95;102597.38;5035163;28;20071;-68
2022/03/06 09:41:43;;;;;;;4.53;3.00;;;;;;;20.42;39.13;102593.75;5035834;28;20021;-67
2022/03/06 09:44:11;;;;;;;5.00;3.00;;;;;;;20.45;39.44;102598.84;5035982;28;20275;-66
2022/03/06 09:46:37;;;;;;;4.78;2.80;;;;;;;20.50;39.17;102597.72;5034950;28;20495;-69
2022/03/06 09:49:03;;;;;;;4.15;2.70;;;;;;;20.50;39.40;102590.63;5035864;28;20064;-67
2022/03/06 09:51:39;;;;;;;4.68;2.92;;;;;;;20.46;39.12;102597.06;5035390;28;20473;-67
2022/03/06 09:54:12;;;;;;;4.55;2.47;;;;;;;20.50;39.46;102589.78;5034855;28;20033;-68
2022/03/06 09:56:39;;;;;;;4.93;3.05;;;;;;;20.55;39.51;102592.97;5035479;28;20033;-67
2022/03/06 09:59:05;;;;;;;5.65;3.00;;;;;;;20.58;39.29;102598.06;5035702;28;20017;-68
2022/03/06 10:01:30;;;;;;;4.60;2.63;;;;;;;20.59;39.53;102595.34;5034465;28;20025;-67
2022/03/06 10:03:56;;;;;;;5.13;2.58;;;;;;;20.61;39.79;102592.59;5035610;28;20452;-67
2022/03/06 10:06:21;;;;;;;5.82;2.85;;;;;;;20.60;39.22;102585.56;5035073;28;20029;-67
2022/03/06 10:08:46;;;;;;;5.18;3.53;;;;;;;20.50;37.26;102584.47;5034840;28;20041;-66
2022/03/06 10:11:13;;;;;;;5.35;3.22;;;;;;;20.35;39.07;102589.81;5035459;28;20048;-66
2022/03/06 10:13:41;;;;;;;6.00;3.80;;;;;;;20.27;37.35;102589.44;5035014;28;20061;-62
2022/03/06 10:16:12;;;;;;;5.40;3.10;;;;;;;20.33;38.65;102594.38;5034715;28;20049;-62
2022/03/06 10:18:55;;;;;;;5.55;3.10;;;;;;;20.42;39.40;102592.91;5034986;28;20398;-62
2022/03/06 10:21:22;;;;;;;6.32;3.03;;;;;;;20.50;39.77;102597.72;5034394;28;20420;-61
2022/03/06 10:23:50;;;;;;;4.93;2.60;;;;;;;20.52;39.68;102602.00;5034402;28;20026;-62
2022/03/06 10:26:18;;;;;;;4.32;2.65;;;;;;;20.54;39.66;102597.44;5034981;28;20041;-61
2022/03/06 10:29:05;;;;;;;5.13;2.60;;;;;;;20.55;39.56;102599.13;5034173;28;20056;-61
2022/03/06 10:31:33;;;;;;;5.25;2.97;;;;;;;20.56;39.26;102605.28;5034501;28;20184;-62
2022/03/06 10:34:10;;;;;;;4.18;2.78;;;;;;;20.56;39.76;102602.63;5035176;28;20095;-62
2022/03/06 10:36:46;;;;;;;4.68;2.97;;;;;;;20.54;40.18;102596.59;5034143;28;20025;-63
2022/03/06 10:39:23;;;;;;;3.63;2.45;;;;;;;20.55;39.90;102609.72;5035071;28;20040;-62
2022/03/06 10:41:55;;;;;;;4.70;2.90;;;;;;;20.55;39.81;102606.22;5034918;28;20018;-63
2022/03/06 10:44:22;;;;;;;4.47;2.90;;;;;;;20.53;40.05;102601.03;5033704;28;20368;-63
2022/03/06 10:47:02;;;;;;;5.15;2.88;;;;;;;20.53;40.38;102611.63;5034859;28;20048;-63
2022/03/06 10:49:28;;;;;;;5.65;3.20;;;;;;;20.50;40.40;102598.56;5033818;28;20036;-62
2022/03/06 10:51:54;;;;;;;7.18;2.75;;;;;;;20.50;40.27;102595.06;5034560;28;20381;-61
2022/03/06 10:54:20;;;;;;;4.97;2.70;;;;;;;20.51;40.49;102602.94;5033949;28;20092;-62
2022/03/06 10:56:50;;;;;;;5.15;2.58;;;;;;;20.50;40.07;102600.38;5033641;28;20087;-62
2022/03/06 10:59:25;;;;;;;4.13;2.50;;;;;;;20.51;40.26;102602.09;5034513;28;20036;-63
2022/03/06 11:01:50;;;;;;;4.20;2.60;;;;;;;20.53;40.15;102600.19;5034383;28;20053;-62
2022/03/06 11:04:21;;;;;;;4.05;2.60;;;;;;;20.47;40.51;102596.97;5033788;28;20057;-67
2022/03/06 11:06:49;;;;;;;4.55;2.63;;;;;;;20.42;41.00;102603.50;5034328;28;20025;-65
2022/03/06 11:09:16;;;;;;;4.32;2.40;;;;;;;20.39;41.00;102603.69;5034122;28;20037;-64
2022/03/06 11:11:44;;;;;;;4.60;2.70;;;;;;;20.40;41.10;102602.75;5033358;28;20113;-64
2022/03/06 11:14:10;;;;;;;4.60;2.60;;;;;;;20.42;41.33;102598.22;5034008;28;20043;-64
2022/03/06 11:16:36;;;;;;;4.78;2.90;;;;;;;20.45;41.03;102595.38;5033672;28;20061;-65
2022/03/06 11:19:03;;;;;;;4.63;2.58;;;;;;;20.50;40.90;102592.44;5033335;28;20108;-65
2022/03/06 11:21:32;;;;;;;4.68;2.90;;;;;;;20.54;40.63;102586.00;5033712;28;20477;-62